Terminal Aerodrome Forecast
Issued by NWS Jackson, MS

Home | Current Version | Previous Version | Text Only | Print | Product List | Glossary On
Versions: 1 2 3 4 5 6 7 8 9 10 11 12 13 14
000
FTUS44 KJAN 021100
TAFMEI
TAF
KMEI 021140Z 0212/0312 03004KT 4SM -DZ BR OVC002
     FM021600 06004KT 4SM -RA BR OVC006
     FM030400 VRB04KT 1SM BR OVC003=

USA.gov is the U.S. government's official web portal to all federal, state and local government web resources and services.